createdAt,value
2023-03-30T00:13:36.875Z,63.24
2023-03-30T00:16:06.224Z,63.05
2023-03-30T00:18:34.678Z,62.87
2023-03-30T00:21:05.149Z,62.85
2023-03-30T00:23:33.888Z,63.04
2023-03-30T00:26:01.979Z,63.29
2023-03-30T00:28:31.784Z,63.47
2023-03-30T00:30:59.940Z,63.24
2023-03-30T00:33:43.880Z,63.74
2023-03-30T00:36:15.658Z,63.22
2023-03-30T00:38:44.313Z,63.51
2023-03-30T00:41:12.597Z,63.61
2023-03-30T00:43:59.612Z,64.57
2023-03-30T00:46:28.504Z,64.49
2023-03-30T00:48:59.915Z,64.96
2023-03-30T00:51:29.728Z,64.52
2023-03-30T00:54:02.468Z,64.77
2023-03-30T00:56:31.846Z,64.62
2023-03-30T00:59:01.534Z,64.15
2023-03-30T01:01:30.532Z,64.02
2023-03-30T01:04:02.114Z,64.27
2023-03-30T01:06:33.855Z,63.67
2023-03-30T01:09:02.493Z,63.56
2023-03-30T01:11:30.347Z,63.68
2023-03-30T01:14:03.363Z,63.27
2023-03-30T01:16:41.014Z,64.14
2023-03-30T01:19:43.662Z,64.09
2023-03-30T01:22:56.646Z,64.12
2023-03-30T01:25:48.355Z,63.74
2023-03-30T01:28:26.458Z,63.89
2023-03-30T01:31:25.612Z,63.76
2023-03-30T01:34:23.718Z,63.92
2023-03-30T01:37:15.820Z,64.76
2023-03-30T01:39:56.298Z,64.94
2023-03-30T01:42:33.616Z,65.01
2023-03-30T01:45:10.903Z,65.77
2023-03-30T01:47:43.547Z,65.64
2023-03-30T01:50:15.697Z,65.86
2023-03-30T01:52:53.700Z,66.12
2023-03-30T01:55:27.816Z,66.08
2023-03-30T01:58:00.963Z,66.20
2023-03-30T02:00:30.213Z,66.89
2023-03-30T02:03:05.598Z,65.90
2023-03-30T02:05:35.814Z,65.89
2023-03-30T02:08:08.941Z,66.47
2023-03-30T02:10:41.295Z,66.00
2023-03-30T02:13:09.659Z,66.34
2023-03-30T02:15:41.126Z,66.88
2023-03-30T02:18:09.953Z,67.09
2023-03-30T02:20:38.226Z,67.57
2023-03-30T02:23:07.686Z,67.02
2023-03-30T02:25:38.625Z,67.44
2023-03-30T02:28:08.588Z,67.63
2023-03-30T02:30:40.630Z,68.13
2023-03-30T02:33:11.041Z,68.07
2023-03-30T02:35:57.922Z,68.57
2023-03-30T02:38:41.817Z,68.06
2023-03-30T02:41:22.449Z,68.69
2023-03-30T02:44:01.473Z,68.77
2023-03-30T02:46:51.381Z,68.42
2023-03-30T02:49:34.148Z,68.45
2023-03-30T02:52:16.749Z,68.78
2023-03-30T02:54:51.723Z,68.29
2023-03-30T02:57:30.008Z,68.38
2023-03-30T03:00:19.859Z,68.21
2023-03-30T03:02:52.453Z,68.06
2023-03-30T03:05:28.583Z,68.04
2023-03-30T03:08:16.548Z,67.61
2023-03-30T03:10:46.520Z,67.84
2023-03-30T03:13:16.273Z,67.94
2023-03-30T03:15:49.542Z,67.92
2023-03-30T03:18:18.618Z,67.97
2023-03-30T03:20:47.279Z,67.91
2023-03-30T03:23:15.382Z,68.22
2023-03-30T03:25:50.340Z,67.66
2023-03-30T03:28:20.600Z,67.71
2023-03-30T03:30:53.362Z,68.00
2023-03-30T03:33:24.853Z,67.74
2023-03-30T03:36:00.844Z,67.39
2023-03-30T03:38:31.219Z,67.28
2023-03-30T03:41:00.911Z,67.24
2023-03-30T03:43:30.860Z,66.84
2023-03-30T03:46:00.456Z,66.72
2023-03-30T03:48:28.529Z,66.70
2023-03-30T03:50:58.450Z,66.14
2023-03-30T03:53:29.608Z,66.23
2023-03-30T03:56:04.157Z,66.60
2023-03-30T03:58:32.772Z,66.66
2023-03-30T04:01:03.284Z,65.89
2023-03-30T04:03:31.595Z,65.58
2023-03-30T04:06:01.141Z,65.53
2023-03-30T04:08:29.606Z,65.37
2023-03-30T04:11:08.910Z,65.74
2023-03-30T04:13:55.153Z,65.43
2023-03-30T04:16:44.993Z,65.55
2023-03-30T04:19:33.339Z,65.46
2023-03-30T04:22:25.689Z,65.26
2023-03-30T04:25:16.676Z,65.50
2023-03-30T04:28:05.168Z,65.73
2023-03-30T04:30:58.956Z,65.83
2023-03-30T04:33:51.935Z,65.58
2023-03-30T04:36:44.311Z,65.77
2023-03-30T04:39:30.433Z,65.48
2023-03-30T04:42:30.285Z,65.67
2023-03-30T04:45:18.298Z,65.23
2023-03-30T04:48:01.480Z,64.74
2023-03-30T04:50:50.847Z,65.00
2023-03-30T04:53:30.940Z,65.22
2023-03-30T04:56:14.842Z,65.29
2023-03-30T04:59:05.705Z,65.22
2023-03-30T05:01:51.985Z,65.41
2023-03-30T05:04:19.964Z,64.90
2023-03-30T05:07:08.953Z,65.22
2023-03-30T05:09:49.764Z,65.04
2023-03-30T05:12:17.630Z,64.36
2023-03-30T05:15:09.720Z,64.46
2023-03-30T05:18:13.133Z,63.57
2023-03-30T05:21:04.565Z,63.96
2023-03-30T05:23:52.844Z,64.40
2023-03-30T05:26:41.325Z,64.16
2023-03-30T05:29:26.330Z,64.21
2023-03-30T05:32:06.227Z,64.52
2023-03-30T05:34:52.740Z,64.70
2023-03-30T05:37:43.527Z,65.03
2023-03-30T05:40:27.841Z,65.18
2023-03-30T05:43:22.676Z,64.84
2023-03-30T05:45:51.099Z,65.11
2023-03-30T05:48:32.297Z,65.00
2023-03-30T05:51:29.636Z,65.56
2023-03-30T05:54:16.629Z,65.52
2023-03-30T05:57:10.346Z,65.19
2023-03-30T06:00:02.324Z,65.33
2023-03-30T06:02:53.705Z,64.92
2023-03-30T06:05:24.384Z,65.24
2023-03-30T06:07:52.533Z,64.19
2023-03-30T06:10:20.474Z,64.17
2023-03-30T06:12:50.574Z,64.09
2023-03-30T06:15:47.681Z,64.31
2023-03-30T06:18:20.556Z,63.70
2023-03-30T06:21:07.143Z,64.02
2023-03-30T06:23:49.012Z,63.21
2023-03-30T06:26:21.309Z,63.38
2023-03-30T06:28:51.919Z,62.13
2023-03-30T06:31:20.181Z,63.15
2023-03-30T06:33:54.369Z,62.18
2023-03-30T06:36:22.327Z,62.32
2023-03-30T06:39:10.422Z,62.37
2023-03-30T06:41:38.364Z,61.90
2023-03-30T06:44:10.396Z,61.73
2023-03-30T06:46:41.032Z,61.23
2023-03-30T06:49:09.637Z,61.13
2023-03-30T06:51:47.185Z,62.18
2023-03-30T06:54:20.035Z,61.77
2023-03-30T06:56:54.969Z,62.63
2023-03-30T06:59:25.559Z,61.83
2023-03-30T07:02:14.383Z,62.24
2023-03-30T07:05:10.114Z,62.55
2023-03-30T07:07:54.636Z,62.54
2023-03-30T07:10:23.383Z,62.39
2023-03-30T07:12:51.657Z,62.32
2023-03-30T07:15:24.661Z,61.85
2023-03-30T07:17:53.392Z,61.02
2023-03-30T07:20:21.444Z,61.84
2023-03-30T07:23:04.917Z,61.25
2023-03-30T07:25:32.931Z,60.63
2023-03-30T07:28:07.249Z,59.46
2023-03-30T07:30:37.580Z,58.79
2023-03-30T07:33:07.347Z,59.33
2023-03-30T07:35:35.642Z,58.90
2023-03-30T07:38:07.430Z,58.26
2023-03-30T07:40:40.422Z,58.41
2023-03-30T07:43:09.082Z,58.95
2023-03-30T07:45:38.824Z,57.87
2023-03-30T07:48:09.474Z,59.00
2023-03-30T07:50:37.591Z,58.39
2023-03-30T07:53:05.589Z,59.20
2023-03-30T07:55:33.719Z,59.20
2023-03-30T07:58:08.894Z,60.08
2023-03-30T08:00:38.465Z,59.99
2023-03-30T08:03:45.077Z,60.57
2023-03-30T08:06:13.409Z,60.55
2023-03-30T08:08:43.432Z,60.63
2023-03-30T08:11:15.402Z,61.28
2023-03-30T08:13:44.565Z,61.07
2023-03-30T08:16:14.155Z,61.00
2023-03-30T08:18:42.485Z,61.87
2023-03-30T08:21:11.067Z,61.32
2023-03-30T08:23:39.007Z,60.85
2023-03-30T08:26:07.889Z,61.02
2023-03-30T08:28:36.577Z,60.79
2023-03-30T08:31:06.658Z,60.11
2023-03-30T08:33:36.366Z,59.51
2023-03-30T08:36:05.075Z,59.54
2023-03-30T08:38:33.445Z,58.30
2023-03-30T08:41:01.636Z,58.46
2023-03-30T08:43:50.773Z,58.21
2023-03-30T08:46:21.105Z,57.68
2023-03-30T08:48:53.228Z,56.94
2023-03-30T08:51:24.773Z,56.82
2023-03-30T08:53:56.769Z,56.21
2023-03-30T08:56:28.529Z,55.94
2023-03-30T08:59:10.335Z,55.26
2023-03-30T09:01:46.989Z,55.55
2023-03-30T09:04:25.946Z,54.94
2023-03-30T09:06:56.146Z,54.95
2023-03-30T09:09:28.708Z,54.72
2023-03-30T09:12:03.103Z,54.32
2023-03-30T09:14:36.616Z,53.96
2023-03-30T09:17:10.116Z,53.27
2023-03-30T09:19:49.327Z,52.58
2023-03-30T09:22:20.693Z,52.52
2023-03-30T09:24:51.495Z,51.89
2023-03-30T09:27:27.013Z,52.44
2023-03-30T09:30:02.496Z,52.23
2023-03-30T09:32:33.601Z,51.72
2023-03-30T09:35:07.780Z,51.81
2023-03-30T09:37:37.417Z,52.11
2023-03-30T09:40:21.920Z,51.45
2023-03-30T09:42:58.923Z,50.21
2023-03-30T09:45:32.044Z,49.73
2023-03-30T09:48:05.040Z,48.93
2023-03-30T09:50:39.549Z,48.33
2023-03-30T09:53:19.297Z,47.79
2023-03-30T09:55:59.978Z,47.73
2023-03-30T09:58:29.583Z,47.14
2023-03-30T10:01:08.407Z,47.39
2023-03-30T10:03:37.278Z,47.66
2023-03-30T10:06:10.286Z,46.41
2023-03-30T10:08:43.817Z,47.14
2023-03-30T10:11:12.200Z,47.07
2023-03-30T10:13:43.498Z,46.51
2023-03-30T10:16:22.704Z,47.02
2023-03-30T10:18:54.316Z,46.08
2023-03-30T10:21:27.082Z,45.64
2023-03-30T10:24:05.131Z,45.63
2023-03-30T10:26:34.751Z,45.47
2023-03-30T10:29:05.152Z,45.53
2023-03-30T10:31:36.721Z,45.50
2023-03-30T10:34:07.300Z,45.99
2023-03-30T10:36:40.699Z,46.04
2023-03-30T10:39:14.178Z,46.36
2023-03-30T10:41:43.172Z,45.91
2023-03-30T10:44:23.391Z,46.49
2023-03-30T10:46:54.518Z,46.29
2023-03-30T10:49:36.027Z,46.16
2023-03-30T10:52:13.726Z,46.10
2023-03-30T10:54:48.251Z,46.36
2023-03-30T10:57:18.916Z,45.66
2023-03-30T11:00:04.385Z,45.44
2023-03-30T11:02:46.169Z,45.79
2023-03-30T11:05:18.456Z,45.50
2023-03-30T11:07:52.156Z,45.18
2023-03-30T11:10:22.288Z,45.52
2023-03-30T11:12:55.762Z,45.88
2023-03-30T11:15:27.977Z,45.68
2023-03-30T11:18:03.335Z,45.93
2023-03-30T11:20:34.972Z,45.69
2023-03-30T11:23:12.648Z,45.91
2023-03-30T11:25:50.585Z,46.44
2023-03-30T11:28:23.744Z,46.00
2023-03-30T11:30:59.343Z,46.60
2023-03-30T11:33:37.089Z,46.88
2023-03-30T11:36:18.668Z,47.04
2023-03-30T11:38:56.560Z,46.21
2023-03-30T11:41:32.958Z,46.17
2023-03-30T11:44:01.007Z,46.52
2023-03-30T11:46:36.563Z,45.72
2023-03-30T11:49:21.152Z,45.87
2023-03-30T11:52:05.405Z,45.66
2023-03-30T11:55:02.336Z,45.89
2023-03-30T11:57:38.007Z,45.58
2023-03-30T12:00:25.979Z,45.54
2023-03-30T12:03:06.580Z,45.47
2023-03-30T12:05:37.617Z,46.14
2023-03-30T12:08:23.238Z,45.91
2023-03-30T12:10:57.253Z,46.57
2023-03-30T12:13:28.393Z,46.64
2023-03-30T12:16:04.633Z,46.81
2023-03-30T12:18:41.140Z,47.05
2023-03-30T12:21:31.502Z,46.47
2023-03-30T12:24:07.349Z,46.52
2023-03-30T12:26:37.957Z,46.91
2023-03-30T12:29:52.730Z,46.98
2023-03-30T12:32:19.814Z,46.81
2023-03-30T12:34:47.800Z,47.01
2023-03-30T12:37:19.230Z,47.71
2023-03-30T12:39:49.978Z,47.85
2023-03-30T12:42:34.543Z,47.52
2023-03-30T12:45:23.732Z,47.96
2023-03-30T12:48:15.085Z,47.81
2023-03-30T12:50:55.551Z,48.48
2023-03-30T12:53:41.099Z,48.24
2023-03-30T12:56:23.165Z,48.97
2023-03-30T12:59:14.926Z,49.23
2023-03-30T13:02:01.608Z,49.01
2023-03-30T13:04:34.212Z,48.98
2023-03-30T13:07:05.080Z,49.20
2023-03-30T13:09:36.519Z,49.69
2023-03-30T13:12:22.648Z,49.44
2023-03-30T13:14:59.393Z,48.74
2023-03-30T13:17:27.971Z,48.39
2023-03-30T13:20:29.013Z,48.15
2023-03-30T13:23:06.420Z,48.40
2023-03-30T13:25:41.814Z,48.17
2023-03-30T13:28:46.457Z,48.26
2023-03-30T13:31:33.329Z,47.91
2023-03-30T13:34:14.513Z,47.54
2023-03-30T13:36:49.500Z,47.61
2023-03-30T13:39:23.936Z,47.66
2023-03-30T13:42:00.832Z,47.72
2023-03-30T13:44:48.493Z,48.26
2023-03-30T13:47:38.238Z,49.17
2023-03-30T13:50:17.224Z,48.71
2023-03-30T13:52:47.762Z,49.68
2023-03-30T13:55:20.180Z,49.89
2023-03-30T13:57:48.478Z,50.18
2023-03-30T14:00:40.123Z,49.83
2023-03-30T14:03:32.531Z,51.21
2023-03-30T14:06:03.934Z,51.56
2023-03-30T14:08:35.785Z,51.92
2023-03-30T14:11:15.371Z,52.15
2023-03-30T14:13:44.614Z,52.54
2023-03-30T14:16:18.356Z,53.42
2023-03-30T14:18:48.386Z,53.78
2023-03-30T14:21:19.784Z,54.25
2023-03-30T14:23:52.401Z,53.54
2023-03-30T14:26:26.398Z,53.73
2023-03-30T14:28:58.788Z,53.98
2023-03-30T14:31:27.721Z,54.76
2023-03-30T14:33:57.052Z,54.91
2023-03-30T14:36:25.576Z,55.21
2023-03-30T14:38:55.079Z,56.47
2023-03-30T14:41:25.032Z,56.68
2023-03-30T14:43:56.954Z,57.69
2023-03-30T14:46:28.623Z,57.22
2023-03-30T14:48:58.952Z,58.12
2023-03-30T14:51:28.453Z,59.55
2023-03-30T14:53:57.812Z,60.28
2023-03-30T14:56:28.061Z,61.73
2023-03-30T14:58:56.979Z,61.53
2023-03-30T15:01:31.234Z,62.65
2023-03-30T15:04:07.319Z,63.90
2023-03-30T15:06:37.531Z,65.05
2023-03-30T15:09:10.463Z,66.07
2023-03-30T15:11:40.462Z,66.29
2023-03-30T15:14:11.962Z,67.37
2023-03-30T15:16:40.162Z,68.32
2023-03-30T15:19:14.860Z,68.87
2023-03-30T15:21:43.301Z,69.60
2023-03-30T15:24:25.967Z,69.66
2023-03-30T15:26:56.781Z,69.52
2023-03-30T15:29:26.500Z,69.38
2023-03-30T15:32:01.878Z,68.97
2023-03-30T15:34:31.946Z,69.27
2023-03-30T15:37:00.824Z,69.84
2023-03-30T15:39:34.197Z,69.95
2023-03-30T15:42:04.558Z,70.20
2023-03-30T15:44:37.005Z,70.42
2023-03-30T15:47:07.926Z,70.09
2023-03-30T15:49:42.022Z,70.68
2023-03-30T15:52:14.672Z,69.83
2023-03-30T15:54:46.289Z,69.89
2023-03-30T15:57:20.658Z,71.01
2023-03-30T15:59:53.151Z,71.31
2023-03-30T16:02:23.384Z,71.44
2023-03-30T16:04:54.364Z,71.43
2023-03-30T16:07:24.682Z,72.25
2023-03-30T16:09:53.321Z,72.52
2023-03-30T16:12:25.308Z,72.03
2023-03-30T16:14:53.507Z,72.35
2023-03-30T16:17:21.734Z,72.48
2023-03-30T16:19:49.754Z,72.68
2023-03-30T16:22:19.007Z,72.00
2023-03-30T16:24:48.223Z,72.22
2023-03-30T16:27:16.440Z,71.90
2023-03-30T16:29:44.813Z,72.02
2023-03-30T16:32:12.609Z,71.45
2023-03-30T16:35:41.825Z,71.20
2023-03-30T16:38:14.796Z,71.64
2023-03-30T16:40:45.015Z,71.53
2023-03-30T16:43:12.976Z,71.99
2023-03-30T16:45:40.953Z,71.46
2023-03-30T16:48:09.139Z,71.49
2023-03-30T16:50:39.371Z,71.08
2023-03-30T16:53:08.827Z,71.29
2023-03-30T16:55:38.651Z,71.14
2023-03-30T16:58:07.304Z,70.46
2023-03-30T17:00:40.561Z,70.73
2023-03-30T17:03:08.952Z,70.52
2023-03-30T17:05:37.222Z,70.70
2023-03-30T17:08:07.575Z,71.81
2023-03-30T17:10:40.765Z,72.95
2023-03-30T17:13:09.301Z,73.32
2023-03-30T17:15:39.078Z,74.05
2023-03-30T17:18:09.070Z,74.14
2023-03-30T17:20:41.592Z,74.11
2023-03-30T17:23:11.178Z,74.03
2023-03-30T17:25:41.914Z,74.70
2023-03-30T17:28:12.246Z,74.93
2023-03-30T17:30:41.838Z,75.86
2023-03-30T17:33:12.827Z,76.08
2023-03-30T17:35:41.144Z,75.66
2023-03-30T17:38:09.732Z,75.30
2023-03-30T17:40:39.054Z,75.34
2023-03-30T17:43:10.808Z,75.65
2023-03-30T17:45:39.944Z,74.96
2023-03-30T17:48:12.833Z,75.31
2023-03-30T17:50:44.208Z,75.65
2023-03-30T17:53:13.218Z,75.70
2023-03-30T17:55:41.555Z,75.61
2023-03-30T17:58:18.620Z,76.20
2023-03-30T18:00:47.828Z,76.29
2023-03-30T18:03:16.566Z,76.86
2023-03-30T18:05:45.790Z,78.05
2023-03-30T18:08:17.262Z,78.44
2023-03-30T18:10:47.885Z,79.06
2023-03-30T18:13:18.200Z,79.86
2023-03-30T18:15:49.262Z,80.60
2023-03-30T18:18:22.598Z,81.32
2023-03-30T18:20:52.393Z,81.49
2023-03-30T18:23:21.083Z,81.62
2023-03-30T18:25:49.282Z,81.69
2023-03-30T18:28:20.456Z,81.55
2023-03-30T18:30:49.290Z,81.61
2023-03-30T18:33:17.722Z,81.99
2023-03-30T18:35:47.567Z,81.61
2023-03-30T18:38:18.087Z,81.99
2023-03-30T18:40:49.332Z,81.84
2023-03-30T18:43:18.909Z,81.98
2023-03-30T18:45:49.501Z,80.83
2023-03-30T18:48:21.193Z,81.49
2023-03-30T18:50:50.886Z,81.40
2023-03-30T18:53:20.141Z,81.50
2023-03-30T18:55:50.124Z,81.12
2023-03-30T18:58:21.489Z,80.73
2023-03-30T19:00:50.575Z,80.95
2023-03-30T19:03:19.523Z,80.94
2023-03-30T19:05:48.551Z,80.86
2023-03-30T19:08:19.356Z,80.66
2023-03-30T19:10:49.249Z,80.63
2023-03-30T19:13:20.480Z,80.91
2023-03-30T19:15:49.620Z,80.91
2023-03-30T19:18:17.968Z,80.68
2023-03-30T19:20:46.701Z,80.18
2023-03-30T19:23:16.408Z,79.73
2023-03-30T19:25:45.517Z,80.25
2023-03-30T19:28:14.655Z,81.07
2023-03-30T19:30:44.391Z,81.33
2023-03-30T19:33:16.181Z,80.88
2023-03-30T19:35:46.067Z,81.44
2023-03-30T19:38:14.693Z,81.33
2023-03-30T19:40:43.084Z,81.27
2023-03-30T19:43:11.306Z,81.64
2023-03-30T19:45:39.697Z,81.74
2023-03-30T19:48:09.665Z,81.73
2023-03-30T19:50:38.507Z,81.99
2023-03-30T19:53:06.616Z,82.06
2023-03-30T19:55:35.766Z,82.17
2023-03-30T19:58:03.764Z,82.04
2023-03-30T20:00:34.672Z,81.79
2023-03-30T20:03:02.805Z,81.95
2023-03-30T20:05:32.211Z,82.06
2023-03-30T20:08:07.817Z,81.96
2023-03-30T20:10:41.536Z,82.28
2023-03-30T20:13:09.511Z,81.62
2023-03-30T20:15:37.365Z,81.80
2023-03-30T20:18:05.600Z,82.01
2023-03-30T20:20:34.930Z,81.90
2023-03-30T20:23:04.016Z,82.43
2023-03-30T20:25:32.025Z,82.40
2023-03-30T20:27:59.883Z,81.99
2023-03-30T20:30:27.813Z,81.27
2023-03-30T20:33:06.586Z,81.21
2023-03-30T20:35:38.272Z,81.33
2023-03-30T20:38:08.308Z,81.50
2023-03-30T20:40:36.626Z,81.69
2023-03-30T20:43:09.983Z,82.04
2023-03-30T20:45:46.008Z,82.12
2023-03-30T20:48:25.931Z,81.97
2023-03-30T20:50:56.789Z,82.21
2023-03-30T20:53:25.229Z,82.58
2023-03-30T20:55:53.200Z,82.19
2023-03-30T20:58:22.455Z,82.32
2023-03-30T21:00:52.005Z,81.96
2023-03-30T21:03:20.741Z,82.40
2023-03-30T21:05:59.280Z,82.66
2023-03-30T21:08:29.338Z,83.31
2023-03-30T21:10:57.229Z,83.05
2023-03-30T21:13:25.476Z,82.51
2023-03-30T21:15:57.248Z,82.58
2023-03-30T21:18:25.542Z,82.41
2023-03-30T21:20:53.887Z,81.54
2023-03-30T21:23:22.366Z,81.99
2023-03-30T21:25:55.013Z,81.98
2023-03-30T21:28:22.993Z,81.61
2023-03-30T21:30:50.832Z,81.41
2023-03-30T21:33:18.769Z,81.76
2023-03-30T21:35:49.758Z,81.55
2023-03-30T21:38:18.250Z,81.52
2023-03-30T21:41:00.634Z,81.71
2023-03-30T21:43:30.038Z,81.66
2023-03-30T21:45:59.719Z,81.98
2023-03-30T21:48:29.412Z,82.05
2023-03-30T21:50:59.969Z,81.54
2023-03-30T21:53:28.364Z,81.63
2023-03-30T21:55:58.224Z,81.39
2023-03-30T21:58:27.192Z,81.04
2023-03-30T22:01:08.599Z,81.07
2023-03-30T22:03:40.744Z,80.63
2023-03-30T22:06:10.515Z,80.75
2023-03-30T22:08:38.562Z,80.62
2023-03-30T22:11:09.543Z,80.10
2023-03-30T22:13:37.397Z,80.27
2023-03-30T22:16:08.140Z,80.37
2023-03-30T22:18:36.274Z,79.92
2023-03-30T22:21:07.837Z,80.39
2023-03-30T22:23:36.073Z,79.94
2023-03-30T22:26:04.251Z,79.95
2023-03-30T22:28:33.629Z,79.69
2023-03-30T22:31:01.441Z,79.93
2023-03-30T22:33:29.820Z,79.96
2023-03-30T22:35:59.810Z,79.90
2023-03-30T22:38:27.832Z,79.71
2023-03-30T22:41:04.599Z,79.49
2023-03-30T22:43:36.166Z,79.82
2023-03-30T22:46:04.501Z,79.36
2023-03-30T22:48:33.022Z,79.64
2023-03-30T22:51:03.055Z,80.00
2023-03-30T22:53:31.224Z,80.17
2023-03-30T22:55:59.162Z,80.04
2023-03-30T22:58:27.226Z,80.96
2023-03-30T23:01:02.081Z,81.17
2023-03-30T23:03:30.249Z,81.26
2023-03-30T23:06:01.715Z,81.17
2023-03-30T23:08:30.520Z,80.92
2023-03-30T23:11:04.795Z,81.00
2023-03-30T23:13:37.548Z,81.00
2023-03-30T23:16:08.013Z,81.05
2023-03-30T23:18:36.512Z,81.12
2023-03-30T23:21:06.985Z,80.94
2023-03-30T23:23:35.777Z,81.25
2023-03-30T23:26:08.348Z,81.19
2023-03-30T23:28:38.480Z,81.21
2023-03-30T23:31:12.474Z,81.19
2023-03-30T23:33:41.020Z,81.52
2023-03-30T23:36:10.454Z,80.93
2023-03-30T23:38:38.712Z,81.48
2023-03-30T23:41:07.690Z,81.50
2023-03-30T23:43:35.949Z,81.07
2023-03-30T23:46:04.348Z,81.04
2023-03-30T23:48:34.368Z,81.06
2023-03-30T23:51:02.727Z,81.09
2023-03-30T23:53:30.993Z,80.88
2023-03-30T23:55:59.809Z,81.64
2023-03-30T23:58:27.856Z,82.52
